Time;durP1;ratioP1;P1;durP2;ratioP2;P2;SDS_P1;SDS_P2;PMS_P1;PMS_P2;Temp;Humidity;BMP_temperature;BMP_pressure;BME280_temperature;BME280_humidity;BME280_pressure;Samples;Min_cycle;Max_cycle;Signal;HPM_P1;HPM_P2
2023/08/14 00:00:19;;;;;;;;;;;;;;;;;;5057877;28;20019;-24
2023/08/14 00:02:45;;;;;;;;;;;;;;;;;;5057510;28;19917;-25
2023/08/14 00:05:11;;;;;;;;;;;;;;;;;;5057486;28;19921;-25
2023/08/14 00:07:37;;;;;;;;;;;;;;;;;;5057777;28;19908;-24
2023/08/14 00:10:03;;;;;;;;;;;;;;;;;;5057527;28;19919;-22
2023/08/14 00:12:29;;;;;;;;;;;;;;;;;;5057437;28;19909;-24
2023/08/14 00:14:55;;;;;;;;;;;;;;;;;;5057087;28;19917;-22
2023/08/14 00:17:21;;;;;;;;;;;;;;;;;;5056627;28;19917;-22
2023/08/14 00:19:47;;;;;;;;;;;;;;;;;;5039764;28;19908;-23
2023/08/14 00:22:13;;;;;;;;;;;;;;;;;;5040156;28;20264;-23
2023/08/14 00:24:39;;;;;;;;;;;;;;;;;;5057512;28;19909;-24
2023/08/14 00:27:05;;;;;;;;;;;;;;;;;;5057199;28;20423;-25
2023/08/14 00:29:31;;;;;;;;;;;;;;;;;;5057156;28;20347;-24
2023/08/14 00:31:56;;;;;;;;;;;;;;;;;;5057317;28;19927;-23
2023/08/14 00:34:22;;;;;;;;;;;;;;;;;;5057307;28;20415;-24
2023/08/14 00:36:48;;;;;;;;;;;;;;;;;;5057012;28;19959;-22
2023/08/14 00:39:14;;;;;;;;;;;;;;;;;;5057237;28;19909;-22
2023/08/14 00:41:40;;;;;;;;;;;;;;;;;;5057167;28;20288;-25
2023/08/14 00:44:06;;;;;;;;;;;;;;;;;;5056796;28;20002;-23
2023/08/14 00:46:32;;;;;;;;;;;;;;;;;;5056858;28;19913;-25
2023/08/14 00:48:58;;;;;;;;;;;;;;;;;;5057050;28;19909;-24
2023/08/14 00:51:24;;;;;;;;;;;;;;;;;;5056727;28;19952;-29
2023/08/14 00:53:50;;;;;;;;;;;;;;;;;;5056600;28;19917;-29
2023/08/14 00:56:16;;;;;;;;;;;;;;;;;;5056589;28;19970;-24
2023/08/14 00:58:42;;;;;;;;;;;;;;;;;;5056596;28;19938;-22
2023/08/14 01:01:08;;;;;;;;;;;;;;;;;;5056494;28;19924;-23
2023/08/14 01:03:34;;;;;;;;;;;;;;;;;;5056728;28;19919;-22
2023/08/14 01:06:00;;;;;;;;;;;;;;;;;;5056292;28;19990;-22
2023/08/14 01:08:26;;;;;;;;;;;;;;;;;;5056424;28;19909;-22
2023/08/14 01:10:52;;;;;;;;;;;;;;;;;;5056656;28;19970;-23
2023/08/14 01:13:18;;;;;;;;;;;;;;;;;;5056303;28;19995;-26
2023/08/14 01:15:44;;;;;;;;;;;;;;;;;;5056305;28;19909;-23
2023/08/14 01:18:10;;;;;;;;;;;;;;;;;;5056554;28;20339;-24
2023/08/14 01:20:35;;;;;;;;;;;;;;;;;;5056149;28;19916;-25
2023/08/14 01:23:01;;;;;;;;;;;;;;;;;;5056245;28;19923;-23
2023/08/14 01:25:27;;;;;;;;;;;;;;;;;;5056062;28;19909;-25
2023/08/14 01:27:53;;;;;;;;;;;;;;;;;;5055634;28;19909;-25
2023/08/14 01:30:19;;;;;;;;;;;;;;;;;;5055967;28;20004;-21
2023/08/14 01:32:45;;;;;;;;;;;;;;;;;;5055925;28;19920;-23
2023/08/14 01:35:11;;;;;;;;;;;;;;;;;;5055947;28;19967;-24
2023/08/14 01:37:37;;;;;;;;;;;;;;;;;;5055861;28;19967;-23
2023/08/14 01:40:03;;;;;;;;;;;;;;;;;;5056092;28;20224;-24
2023/08/14 01:42:29;;;;;;;;;;;;;;;;;;5055629;28;20003;-28
2023/08/14 01:44:55;;;;;;;;;;;;;;;;;;5055741;28;19960;-23
2023/08/14 01:47:21;;;;;;;;;;;;;;;;;;5055658;28;19913;-25
2023/08/14 01:49:47;;;;;;;;;;;;;;;;;;5055628;28;19909;-26
2023/08/14 01:52:13;;;;;;;;;;;;;;;;;;5055556;28;20260;-25
2023/08/14 01:54:39;;;;;;;;;;;;;;;;;;5055555;28;19908;-21
2023/08/14 01:57:05;;;;;;;;;;;;;;;;;;5055551;28;20363;-22
2023/08/14 01:59:31;;;;;;;;;;;;;;;;;;5055730;28;20344;-25
2023/08/14 02:01:57;;;;;;;;;;;;;;;;;;5055266;28;19920;-25
2023/08/14 02:04:23;;;;;;;;;;;;;;;;;;5055373;28;20000;-25
2023/08/14 02:06:48;;;;;;;;;;;;;;;;;;5055312;28;19944;-27
2023/08/14 02:09:14;;;;;;;;;;;;;;;;;;5037646;28;19912;-24
2023/08/14 02:11:40;;;;;;;;;;;;;;;;;;5055533;28;20009;-24
2023/08/14 02:14:06;;;;;;;;;;;;;;;;;;5055154;28;19909;-27
2023/08/14 02:16:34;;;;;;;;;;;;;;;;;;5055150;28;20128;-27
2023/08/14 02:19:00;;;;;;;;;;;;;;;;;;5055396;28;19909;-26
2023/08/14 02:21:26;;;;;;;;;;;;;;;;;;5054988;28;19923;-23
2023/08/14 02:23:52;;;;;;;;;;;;;;;;;;5055247;28;19956;-28
2023/08/14 02:26:18;;;;;;;;;;;;;;;;;;5054950;28;19908;-23
2023/08/14 02:28:44;;;;;;;;;;;;;;;;;;5054956;28;19939;-21
2023/08/14 02:31:10;;;;;;;;;;;;;;;;;;5055164;28;19944;-23
2023/08/14 02:33:36;;;;;;;;;;;;;;;;;;5055002;28;20284;-22
2023/08/14 02:36:02;;;;;;;;;;;;;;;;;;5054867;28;19955;-23
2023/08/14 02:38:30;;;;;;;;;;;;;;;;;;5054276;28;20236;-23
2023/08/14 02:40:56;;;;;;;;;;;;;;;;;;5055006;28;19939;-23
2023/08/14 02:43:22;;;;;;;;;;;;;;;;;;5054701;28;19909;-28
2023/08/14 02:45:48;;;;;;;;;;;;;;;;;;5037159;28;20315;-28
2023/08/14 02:48:14;;;;;;;;;;;;;;;;;;5054735;28;19998;-22
2023/08/14 02:50:40;;;;;;;;;;;;;;;;;;5054949;28;19920;-24
2023/08/14 02:53:06;;;;;;;;;;;;;;;;;;5054835;28;20245;-28
2023/08/14 02:55:32;;;;;;;;;;;;;;;;;;5054639;28;19909;-25
2023/08/14 02:57:57;;;;;;;;;;;;;;;;;;5054621;28;19909;-23
2023/08/14 03:00:23;;;;;;;;;;;;;;;;;;5054838;28;19917;-26
2023/08/14 03:02:49;;;;;;;;;;;;;;;;;;5054382;28;20011;-23
2023/08/14 03:05:15;;;;;;;;;;;;;;;;;;5054383;28;19924;-24
2023/08/14 03:07:41;;;;;;;;;;;;;;;;;;5054815;28;19966;-24
2023/08/14 03:10:07;;;;;;;;;;;;;;;;;;5054732;28;19908;-27
2023/08/14 03:12:33;;;;;;;;;;;;;;;;;;5054359;28;19909;-24
2023/08/14 03:14:59;;;;;;;;;;;;;;;;;;5054447;28;19920;-29
2023/08/14 03:17:25;;;;;;;;;;;;;;;;;;5054696;28;20062;-28
2023/08/14 03:19:51;;;;;;;;;;;;;;;;;;5054361;28;19948;-26
2023/08/14 03:22:17;;;;;;;;;;;;;;;;;;5054237;28;19917;-29
2023/08/14 03:24:43;;;;;;;;;;;;;;;;;;5054333;28;19917;-27
2023/08/14 03:27:09;;;;;;;;;;;;;;;;;;5054608;28;19986;-27
2023/08/14 03:29:35;;;;;;;;;;;;;;;;;;5054349;28;19920;-22
2023/08/14 03:32:01;;;;;;;;;;;;;;;;;;5054250;28;19932;-25
2023/08/14 03:34:27;;;;;;;;;;;;;;;;;;5054237;28;19908;-26
2023/08/14 03:36:52;;;;;;;;;;;;;;;;;;5054114;28;19908;-22
2023/08/14 03:39:18;;;;;;;;;;;;;;;;;;5054034;28;19909;-23
2023/08/14 03:41:44;;;;;;;;;;;;;;;;;;5054079;28;19952;-27
2023/08/14 03:44:10;;;;;;;;;;;;;;;;;;5054051;28;19909;-22
2023/08/14 03:46:36;;;;;;;;;;;;;;;;;;5054054;28;20245;-25
2023/08/14 03:49:02;;;;;;;;;;;;;;;;;;5054237;28;20351;-28
2023/08/14 03:51:28;;;;;;;;;;;;;;;;;;5057142;28;19961;-24
2023/08/14 03:53:54;;;;;;;;;;;;;;;;;;5057865;28;19909;-24
2023/08/14 03:56:20;;;;;;;;;;;;;;;;;;5057899;28;19909;-30
2023/08/14 03:58:46;;;;;;;;;;;;;;;;;;5057668;28;19908;-22
2023/08/14 04:03:48;;;;;;;;;;;;;;;;;;5198725;22;19935;-22
2023/08/14 04:06:14;;;;;;;;;;;;;;;;;;5097663;28;19908;-22
2023/08/14 04:08:40;;;;;;;;;;;;;;;;;;5097518;28;19982;-22
2023/08/14 04:11:06;;;;;;;;;;;;;;;;;;5097335;28;19939;-21
2023/08/14 04:13:32;;;;;;;;;;;;;;;;;;5097074;28;20235;-20
2023/08/14 04:16:03;;;;;;;;;;;;;;;;;;5097347;28;19942;-20
2023/08/14 04:18:29;;;;;;;;;;;;;;;;;;5079214;28;20003;-22
2023/08/14 04:20:55;;;;;;;;;;;;;;;;;;5078938;28;19960;-21
2023/08/14 04:23:21;;;;;;;;;;;;;;;;;;5097298;28;20002;-22
2023/08/14 04:25:47;;;;;;;;;;;;;;;;;;5097238;28;20355;-21
2023/08/14 04:28:13;;;;;;;;;;;;;;;;;;5097489;28;20326;-21
2023/08/14 04:30:39;;;;;;;;;;;;;;;;;;5079562;28;19916;-22
2023/08/14 04:33:05;;;;;;;;;;;;;;;;;;5097749;28;19995;-23
2023/08/14 04:35:31;;;;;;;;;;;;;;;;;;5079562;28;19908;-21
2023/08/14 04:37:57;;;;;;;;;;;;;;;;;;5097434;28;19908;-21
2023/08/14 04:40:23;;;;;;;;;;;;;;;;;;5096982;28;20060;-22
2023/08/14 04:42:49;;;;;;;;;;;;;;;;;;5078842;28;19912;-21
2023/08/14 04:45:15;;;;;;;;;;;;;;;;;;5096718;28;20250;-20
2023/08/14 04:47:41;;;;;;;;;;;;;;;;;;5097053;28;20001;-20
2023/08/14 04:50:07;;;;;;;;;;;;;;;;;;5096693;28;19920;-22
2023/08/14 04:52:33;;;;;;;;;;;;;;;;;;5096673;28;19908;-22
2023/08/14 04:54:59;;;;;;;;;;;;;;;;;;5078727;28;20408;-21
2023/08/14 04:57:25;;;;;;;;;;;;;;;;;;5096690;28;19970;-21
2023/08/14 04:59:51;;;;;;;;;;;;;;;;;;5078553;28;19908;-26
2023/08/14 05:02:17;;;;;;;;;;;;;;;;;;5095225;28;20235;-21
2023/08/14 05:04:42;;;;;;;;;;;;;;;;;;5096484;28;19916;-22
2023/08/14 05:07:08;;;;;;;;;;;;;;;;;;5096381;28;19908;-21
2023/08/14 05:09:34;;;;;;;;;;;;;;;;;;5096543;28;20003;-22
2023/08/14 05:12:00;;;;;;;;;;;;;;;;;;5096345;28;19919;-21
2023/08/14 05:14:26;;;;;;;;;;;;;;;;;;5078264;28;19918;-21
2023/08/14 05:16:52;;;;;;;;;;;;;;;;;;5078808;28;19966;-20
2023/08/14 05:19:18;;;;;;;;;;;;;;;;;;5096162;28;20328;-21
2023/08/14 05:21:45;;;;;;;;;;;;;;;;;;5095686;28;19912;-21
2023/08/14 05:24:11;;;;;;;;;;;;;;;;;;5095912;28;20242;-22
2023/08/14 05:26:37;;;;;;;;;;;;;;;;;;5096248;28;19991;-22
2023/08/14 05:29:03;;;;;;;;;;;;;;;;;;5095774;28;19915;-21
2023/08/14 05:31:29;;;;;;;;;;;;;;;;;;5095651;28;20012;-21
2023/08/14 05:33:55;;;;;;;;;;;;;;;;;;5077780;28;19908;-20
2023/08/14 05:36:20;;;;;;;;;;;;;;;;;;5095616;28;19935;-21
2023/08/14 05:38:46;;;;;;;;;;;;;;;;;;5077815;28;19915;-22
2023/08/14 05:41:12;;;;;;;;;;;;;;;;;;5095732;28;19927;-23
2023/08/14 05:43:38;;;;;;;;;;;;;;;;;;5077604;28;20250;-21
2023/08/14 05:46:04;;;;;;;;;;;;;;;;;;5077694;28;19908;-21
2023/08/14 05:48:30;;;;;;;;;;;;;;;;;;5095658;28;20330;-22
2023/08/14 05:50:56;;;;;;;;;;;;;;;;;;5095641;28;19914;-20
2023/08/14 05:53:22;;;;;;;;;;;;;;;;;;5077324;28;19912;-22
2023/08/14 05:55:48;;;;;;;;;;;;;;;;;;5095462;28;20030;-22
2023/08/14 05:58:14;;;;;;;;;;;;;;;;;;5095152;28;20268;-23
2023/08/14 06:00:40;;;;;;;;;;;;;;;;;;5095416;28;19908;-21
2023/08/14 06:03:08;;;;;;;;;;;;;;;;;;5094439;28;20008;-20
2023/08/14 06:05:34;;;;;;;;;;;;;;;;;;5095043;28;19904;-21
2023/08/14 06:08:00;;;;;;;;;;;;;;;;;;5095363;28;19908;-21
2023/08/14 06:10:26;;;;;;;;;;;;;;;;;;5095080;28;19904;-21
2023/08/14 06:12:52;;;;;;;;;;;;;;;;;;5094679;28;19919;-21
2023/08/14 06:15:21;;;;;;;;;;;;;;;;;;5094325;28;19960;-22
2023/08/14 06:17:47;;;;;;;;;;;;;;;;;;5094337;28;19915;-20
2023/08/14 06:20:13;;;;;;;;;;;;;;;;;;5094145;28;20017;-21
2023/08/14 06:22:40;;;;;;;;;;;;;;;;;;5094317;28;20354;-21
2023/08/14 06:25:06;;;;;;;;;;;;;;;;;;5094337;28;19919;-22
2023/08/14 06:27:32;;;;;;;;;;;;;;;;;;5094318;28;19935;-22
2023/08/14 06:29:58;;;;;;;;;;;;;;;;;;5094156;28;19979;-21
2023/08/14 06:32:24;;;;;;;;;;;;;;;;;;5094063;28;19927;-21
2023/08/14 06:34:50;;;;;;;;;;;;;;;;;;5094071;28;20378;-20
2023/08/14 06:37:16;;;;;;;;;;;;;;;;;;5076172;28;20329;-21
2023/08/14 06:39:42;;;;;;;;;;;;;;;;;;5094401;28;19912;-22
2023/08/14 06:42:08;;;;;;;;;;;;;;;;;;5094649;28;19913;-21
2023/08/14 06:44:34;;;;;;;;;;;;;;;;;;5094096;28;19915;-21
2023/08/14 06:47:00;;;;;;;;;;;;;;;;;;5094213;28;19908;-23
2023/08/14 06:49:26;;;;;;;;;;;;;;;;;;5076709;28;20359;-21
2023/08/14 06:51:52;;;;;;;;;;;;;;;;;;5094324;28;20049;-20
2023/08/14 06:54:18;;;;;;;;;;;;;;;;;;5076780;28;20343;-21
2023/08/14 06:56:44;;;;;;;;;;;;;;;;;;5076728;28;19915;-23
2023/08/14 06:59:10;;;;;;;;;;;;;;;;;;5094429;28;20010;-21
2023/08/14 07:01:36;;;;;;;;;;;;;;;;;;5094237;28;19912;-21
2023/08/14 07:04:02;;;;;;;;;;;;;;;;;;5094222;28;19970;-21
2023/08/14 07:06:28;;;;;;;;;;;;;;;;;;5094778;28;19908;-21
2023/08/14 07:08:54;;;;;;;;;;;;;;;;;;5094637;28;19908;-21
2023/08/14 07:11:20;;;;;;;;;;;;;;;;;;5076614;28;19912;-23
2023/08/14 07:13:45;;;;;;;;;;;;;;;;;;5094359;28;19923;-23
2023/08/14 07:16:11;;;;;;;;;;;;;;;;;;5094317;28;19954;-21
2023/08/14 07:18:37;;;;;;;;;;;;;;;;;;5094057;28;19931;-20
2023/08/14 07:21:03;;;;;;;;;;;;;;;;;;5093874;28;20007;-20
2023/08/14 07:23:31;;;;;;;;;;;;;;;;;;5094285;28;19968;-20
2023/08/14 07:25:57;;;;;;;;;;;;;;;;;;5078937;28;20003;-20
2023/08/14 07:28:23;;;;;;;;;;;;;;;;;;5080197;28;20345;-21
2023/08/14 07:30:49;;;;;;;;;;;;;;;;;;5098391;28;19934;-23
2023/08/14 07:33:15;;;;;;;;;;;;;;;;;;5097937;28;19960;-21
2023/08/14 07:35:41;;;;;;;;;;;;;;;;;;5097999;28;19908;-22
2023/08/14 07:38:07;;;;;;;;;;;;;;;;;;5098152;28;19908;-21
2023/08/14 07:40:33;;;;;;;;;;;;;;;;;;5098217;28;20264;-20
2023/08/14 07:42:59;;;;;;;;;;;;;;;;;;5097703;28;19923;-21
2023/08/14 07:45:25;;;;;;;;;;;;;;;;;;5097804;28;19909;-22
2023/08/14 07:47:51;;;;;;;;;;;;;;;;;;5097906;28;19908;-22
2023/08/14 07:50:17;;;;;;;;;;;;;;;;;;5097780;28;19908;-22
2023/08/14 07:52:43;;;;;;;;;;;;;;;;;;5079742;28;19908;-22
2023/08/14 07:55:09;;;;;;;;;;;;;;;;;;5079861;28;19919;-21
2023/08/14 07:57:35;;;;;;;;;;;;;;;;;;5097733;28;20258;-22
2023/08/14 08:00:01;;;;;;;;;;;;;;;;;;5097555;28;19912;-22
2023/08/14 08:02:27;;;;;;;;;;;;;;;;;;5097493;28;19912;-22
2023/08/14 08:04:53;;;;;;;;;;;;;;;;;;5097703;28;19939;-22
2023/08/14 08:07:19;;;;;;;;;;;;;;;;;;5097739;28;20054;-21
2023/08/14 08:09:45;;;;;;;;;;;;;;;;;;5097334;28;19915;-21
2023/08/14 08:12:11;;;;;;;;;;;;;;;;;;5097164;28;20041;-22
2023/08/14 08:14:37;;;;;;;;;;;;;;;;;;5079364;28;19908;-23
2023/08/14 08:17:03;;;;;;;;;;;;;;;;;;5097212;28;19920;-21
2023/08/14 08:19:28;;;;;;;;;;;;;;;;;;5097010;28;19908;-23
2023/08/14 08:21:54;;;;;;;;;;;;;;;;;;5096911;28;19958;-20
2023/08/14 08:24:20;;;;;;;;;;;;;;;;;;5097359;28;19908;-22
2023/08/14 08:26:46;;;;;;;;;;;;;;;;;;5097267;28;19915;-22
2023/08/14 08:29:12;;;;;;;;;;;;;;;;;;5096830;28;19912;-22
2023/08/14 08:31:38;;;;;;;;;;;;;;;;;;5097101;28;20394;-21
2023/08/14 08:34:04;;;;;;;;;;;;;;;;;;5078777;28;19953;-21
2023/08/14 08:36:30;;;;;;;;;;;;;;;;;;5095541;28;19904;-22
2023/08/14 08:38:56;;;;;;;;;;;;;;;;;;5097009;28;19912;-21
2023/08/14 08:41:22;;;;;;;;;;;;;;;;;;5096761;28;19916;-22
2023/08/14 08:43:48;;;;;;;;;;;;;;;;;;5096414;28;20235;-24
2023/08/14 08:46:14;;;;;;;;;;;;;;;;;;5096225;28;19915;-21
2023/08/14 08:48:40;;;;;;;;;;;;;;;;;;5078054;28;20010;-21
2023/08/14 08:51:06;;;;;;;;;;;;;;;;;;5096025;28;20316;-21
2023/08/14 08:53:32;;;;;;;;;;;;;;;;;;5096161;28;20268;-21
2023/08/14 08:55:58;;;;;;;;;;;;;;;;;;5096218;28;19976;-22
2023/08/14 08:58:24;;;;;;;;;;;;;;;;;;5095819;28;19909;-22
2023/08/14 09:00:50;;;;;;;;;;;;;;;;;;5095815;28;20326;-27
2023/08/14 09:03:16;;;;;;;;;;;;;;;;;;5095304;28;20019;-22
2023/08/14 09:05:42;;;;;;;;;;;;;;;;;;5095628;28;20017;-20
2023/08/14 09:08:11;;;;;;;;;;;;;;;;;;5095644;28;20306;-22
2023/08/14 09:10:36;;;;;;;;;;;;;;;;;;5095603;28;19969;-20
2023/08/14 09:13:02;;;;;;;;;;;;;;;;;;5095494;28;19916;-20
2023/08/14 09:15:28;;;;;;;;;;;;;;;;;;5077453;28;19904;-22
2023/08/14 09:17:54;;;;;;;;;;;;;;;;;;5095516;28;19947;-21
2023/08/14 09:20:20;;;;;;;;;;;;;;;;;;5095500;28;19904;-22
2023/08/14 09:22:46;;;;;;;;;;;;;;;;;;5095536;28;19912;-21
2023/08/14 09:25:12;;;;;;;;;;;;;;;;;;5095863;28;20244;-20
2023/08/14 09:27:38;;;;;;;;;;;;;;;;;;5095988;28;19948;-20
2023/08/14 09:30:04;;;;;;;;;;;;;;;;;;5096113;28;19934;-20
2023/08/14 09:32:30;;;;;;;;;;;;;;;;;;5095446;28;19912;-22
2023/08/14 09:34:56;;;;;;;;;;;;;;;;;;5095510;28;19918;-23
2023/08/14 09:37:22;;;;;;;;;;;;;;;;;;5095604;28;19955;-22
2023/08/14 09:39:49;;;;;;;;;;;;;;;;;;5095663;28;19937;-22
2023/08/14 09:42:15;;;;;;;;;;;;;;;;;;5095504;28;20214;-21
2023/08/14 09:44:41;;;;;;;;;;;;;;;;;;5095570;28;19916;-22
2023/08/14 09:47:06;;;;;;;;;;;;;;;;;;5095143;28;20243;-21
2023/08/14 09:49:32;;;;;;;;;;;;;;;;;;5094951;28;19937;-21
2023/08/14 09:51:58;;;;;;;;;;;;;;;;;;5095366;28;19999;-21
2023/08/14 09:54:24;;;;;;;;;;;;;;;;;;5095240;28;19909;-23
2023/08/14 09:56:52;;;;;;;;;;;;;;;;;;5095272;28;19908;-21
2023/08/14 09:59:18;;;;;;;;;;;;;;;;;;5095520;28;19908;-21
2023/08/14 10:01:44;;;;;;;;;;;;;;;;;;5077307;28;20212;-20
2023/08/14 10:04:10;;;;;;;;;;;;;;;;;;5094927;28;19946;-21
2023/08/14 10:06:36;;;;;;;;;;;;;;;;;;5095097;28;19915;-22
2023/08/14 10:09:02;;;;;;;;;;;;;;;;;;5094899;28;20082;-22
2023/08/14 10:11:28;;;;;;;;;;;;;;;;;;5095083;28;20306;-21
2023/08/14 10:13:54;;;;;;;;;;;;;;;;;;5094714;28;19916;-22
2023/08/14 10:16:20;;;;;;;;;;;;;;;;;;5094848;28;20003;-20
2023/08/14 10:18:46;;;;;;;;;;;;;;;;;;5094982;28;19908;-21
2023/08/14 10:21:12;;;;;;;;;;;;;;;;;;5094348;28;19987;-21
2023/08/14 10:23:38;;;;;;;;;;;;;;;;;;5094492;28;20219;-21
2023/08/14 10:26:05;;;;;;;;;;;;;;;;;;5076779;28;19908;-22
2023/08/14 10:28:31;;;;;;;;;;;;;;;;;;5094672;28;19992;-23
2023/08/14 10:30:57;;;;;;;;;;;;;;;;;;5094595;28;20254;-22
2023/08/14 10:33:23;;;;;;;;;;;;;;;;;;5094368;28;19908;-20
2023/08/14 10:35:49;;;;;;;;;;;;;;;;;;5094417;28;19909;-20
2023/08/14 10:38:16;;;;;;;;;;;;;;;;;;5076176;28;19999;-22
2023/08/14 10:40:42;;;;;;;;;;;;;;;;;;5094099;28;20067;-21
2023/08/14 10:43:08;;;;;;;;;;;;;;;;;;5094089;28;19977;-23
2023/08/14 10:45:34;;;;;;;;;;;;;;;;;;5093949;28;19947;-21
2023/08/14 10:48:00;;;;;;;;;;;;;;;;;;5094373;28;19909;-20
2023/08/14 10:50:26;;;;;;;;;;;;;;;;;;5094357;28;19908;-21
2023/08/14 10:52:52;;;;;;;;;;;;;;;;;;5076481;28;19935;-21
2023/08/14 10:55:18;;;;;;;;;;;;;;;;;;5094078;28;20348;-22
2023/08/14 10:57:44;;;;;;;;;;;;;;;;;;5094016;28;19908;-22
2023/08/14 11:00:10;;;;;;;;;;;;;;;;;;5093061;28;19915;-22
2023/08/14 11:02:38;;;;;;;;;;;;;;;;;;5075375;28;19978;-23
2023/08/14 11:05:04;;;;;;;;;;;;;;;;;;5076313;28;19946;-22
2023/08/14 11:07:30;;;;;;;;;;;;;;;;;;5093748;28;19954;-21
2023/08/14 11:09:57;;;;;;;;;;;;;;;;;;5075776;28;19908;-20
2023/08/14 11:12:23;;;;;;;;;;;;;;;;;;5093520;28;20303;-20
2023/08/14 11:14:49;;;;;;;;;;;;;;;;;;5093651;28;19986;-21
2023/08/14 11:17:14;;;;;;;;;;;;;;;;;;5093710;28;19904;-21
2023/08/14 11:19:40;;;;;;;;;;;;;;;;;;5075879;28;19912;-21
2023/08/14 11:22:06;;;;;;;;;;;;;;;;;;5093766;28;20354;-22
2023/08/14 11:24:32;;;;;;;;;;;;;;;;;;5093767;28;19912;-20
2023/08/14 11:26:58;;;;;;;;;;;;;;;;;;5093647;28;19908;-21
2023/08/14 11:29:24;;;;;;;;;;;;;;;;;;5093629;28;19912;-22
2023/08/14 11:31:51;;;;;;;;;;;;;;;;;;5075943;28;19919;-22
2023/08/14 11:34:17;;;;;;;;;;;;;;;;;;5094191;28;19908;-23
2023/08/14 11:36:43;;;;;;;;;;;;;;;;;;5094074;28;19934;-22
2023/08/14 11:39:09;;;;;;;;;;;;;;;;;;5094081;28;19969;-21
2023/08/14 11:41:35;;;;;;;;;;;;;;;;;;5075967;28;19923;-22
2023/08/14 11:44:01;;;;;;;;;;;;;;;;;;5093506;28;19916;-21
2023/08/14 11:46:27;;;;;;;;;;;;;;;;;;5093910;28;19915;-22
2023/08/14 11:48:53;;;;;;;;;;;;;;;;;;5094067;28;20232;-21
2023/08/14 11:51:19;;;;;;;;;;;;;;;;;;5094111;28;19954;-21
2023/08/14 11:53:45;;;;;;;;;;;;;;;;;;5075739;28;20309;-22
2023/08/14 11:56:11;;;;;;;;;;;;;;;;;;5093638;28;19938;-22
2023/08/14 11:58:37;;;;;;;;;;;;;;;;;;5076051;28;20314;-22
2023/08/14 12:01:03;;;;;;;;;;;;;;;;;;5094039;28;20007;-22
2023/08/14 12:03:29;;;;;;;;;;;;;;;;;;5093519;28;20270;-21
2023/08/14 12:05:55;;;;;;;;;;;;;;;;;;5076193;28;19963;-22
2023/08/14 12:08:21;;;;;;;;;;;;;;;;;;5094287;28;19908;-22
2023/08/14 12:10:47;;;;;;;;;;;;;;;;;;5094179;28;19916;-22
2023/08/14 12:13:13;;;;;;;;;;;;;;;;;;5079397;28;19987;-23
2023/08/14 12:15:39;;;;;;;;;;;;;;;;;;5097524;28;19951;-21
2023/08/14 12:18:05;;;;;;;;;;;;;;;;;;5097225;28;20251;-21
2023/08/14 12:20:33;;;;;;;;;;;;;;;;;;5097049;28;19992;-21
2023/08/14 12:22:59;;;;;;;;;;;;;;;;;;5096932;28;20010;-21
2023/08/14 12:25:25;;;;;;;;;;;;;;;;;;5079360;28;20006;-20
2023/08/14 12:27:51;;;;;;;;;;;;;;;;;;5097189;28;19916;-22
2023/08/14 12:30:17;;;;;;;;;;;;;;;;;;5097054;28;19936;-21
2023/08/14 12:32:43;;;;;;;;;;;;;;;;;;5097130;28;19938;-21
2023/08/14 12:35:09;;;;;;;;;;;;;;;;;;5096974;28;19961;-25
2023/08/14 12:37:35;;;;;;;;;;;;;;;;;;5096986;28;19908;-21
2023/08/14 12:40:08;;;;;;;;;;;;;;;;;;5097037;28;19908;-22
2023/08/14 12:42:34;;;;;;;;;;;;;;;;;;5097074;28;19912;-20
2023/08/14 12:45:00;;;;;;;;;;;;;;;;;;5096935;28;19931;-21
2023/08/14 12:47:25;;;;;;;;;;;;;;;;;;5096690;28;19918;-22
2023/08/14 12:49:52;;;;;;;;;;;;;;;;;;5096561;28;19919;-21
2023/08/14 12:52:18;;;;;;;;;;;;;;;;;;5096628;28;20007;-22
2023/08/14 12:54:44;;;;;;;;;;;;;;;;;;5096328;28;20306;-21
2023/08/14 12:57:10;;;;;;;;;;;;;;;;;;5096123;28;19908;-20
2023/08/14 12:59:36;;;;;;;;;;;;;;;;;;5096773;28;19919;-21
2023/08/14 13:02:02;;;;;;;;;;;;;;;;;;5096008;28;20212;-24
2023/08/14 13:04:28;;;;;;;;;;;;;;;;;;5096093;28;20303;-22
2023/08/14 13:06:54;;;;;;;;;;;;;;;;;;5096472;28;19908;-21
2023/08/14 13:09:20;;;;;;;;;;;;;;;;;;5078132;28;19908;-21
2023/08/14 13:11:46;;;;;;;;;;;;;;;;;;5095903;28;19919;-21
2023/08/14 13:14:11;;;;;;;;;;;;;;;;;;5096277;28;19919;-21
2023/08/14 13:16:37;;;;;;;;;;;;;;;;;;5096120;28;19973;-21
2023/08/14 13:19:03;;;;;;;;;;;;;;;;;;5096142;28;19909;-20
2023/08/14 13:21:29;;;;;;;;;;;;;;;;;;5095833;28;19963;-21
2023/08/14 13:23:55;;;;;;;;;;;;;;;;;;5095221;28;19908;-22
2023/08/14 13:26:23;;;;;;;;;;;;;;;;;;5095877;28;19908;-22
2023/08/14 13:28:48;;;;;;;;;;;;;;;;;;5096012;28;19919;-21
2023/08/14 13:31:14;;;;;;;;;;;;;;;;;;5077912;28;19912;-23
2023/08/14 13:33:40;;;;;;;;;;;;;;;;;;5095707;28;19908;-21
2023/08/14 13:36:06;;;;;;;;;;;;;;;;;;5095633;28;19961;-21
2023/08/14 13:38:32;;;;;;;;;;;;;;;;;;5077777;28;20389;-21
2023/08/14 13:40:58;;;;;;;;;;;;;;;;;;5077961;28;19908;-21
2023/08/14 13:43:24;;;;;;;;;;;;;;;;;;5095524;28;19959;-21
2023/08/14 13:45:50;;;;;;;;;;;;;;;;;;5095626;28;19914;-21
2023/08/14 13:48:17;;;;;;;;;;;;;;;;;;5095872;28;19970;-22
2023/08/14 13:50:43;;;;;;;;;;;;;;;;;;5095498;28;20404;-22
2023/08/14 13:53:09;;;;;;;;;;;;;;;;;;5077476;28;19908;-21
2023/08/14 13:55:35;;;;;;;;;;;;;;;;;;5095640;28;19908;-22
2023/08/14 13:58:01;;;;;;;;;;;;;;;;;;5095672;28;19938;-20
2023/08/14 14:00:27;;;;;;;;;;;;;;;;;;5077230;28;19952;-22
2023/08/14 14:02:53;;;;;;;;;;;;;;;;;;5094939;28;20323;-22
2023/08/14 14:05:19;;;;;;;;;;;;;;;;;;5077552;28;20347;-22
2023/08/14 14:07:45;;;;;;;;;;;;;;;;;;5095402;28;19912;-21
2023/08/14 14:10:11;;;;;;;;;;;;;;;;;;5095504;28;20007;-21
2023/08/14 14:12:37;;;;;;;;;;;;;;;;;;5095315;28;20255;-21
2023/08/14 14:15:03;;;;;;;;;;;;;;;;;;5095220;28;19908;-21
2023/08/14 14:17:29;;;;;;;;;;;;;;;;;;5095495;28;19908;-21
2023/08/14 14:19:55;;;;;;;;;;;;;;;;;;5095171;28;19964;-22
2023/08/14 14:22:21;;;;;;;;;;;;;;;;;;5094898;28;19912;-22
2023/08/14 14:24:47;;;;;;;;;;;;;;;;;;5094913;28;19931;-21
2023/08/14 14:27:13;;;;;;;;;;;;;;;;;;5077224;28;19908;-22
2023/08/14 14:29:39;;;;;;;;;;;;;;;;;;5094992;28;19969;-21
2023/08/14 14:32:05;;;;;;;;;;;;;;;;;;5095055;28;19908;-21
2023/08/14 14:34:31;;;;;;;;;;;;;;;;;;5076060;28;19908;-21
2023/08/14 14:36:57;;;;;;;;;;;;;;;;;;5095070;28;19934;-21
2023/08/14 14:39:23;;;;;;;;;;;;;;;;;;5094832;28;20308;-21
2023/08/14 14:41:49;;;;;;;;;;;;;;;;;;5094692;28;19912;-23
2023/08/14 14:44:15;;;;;;;;;;;;;;;;;;5076913;28;20382;-23
2023/08/14 14:46:41;;;;;;;;;;;;;;;;;;5094344;28;20227;-22
2023/08/14 14:49:07;;;;;;;;;;;;;;;;;;5094644;28;19915;-21
2023/08/14 14:51:33;;;;;;;;;;;;;;;;;;5094524;28;19983;-21
2023/08/14 14:53:59;;;;;;;;;;;;;;;;;;5094878;28;19955;-21
2023/08/14 14:56:25;;;;;;;;;;;;;;;;;;5094557;28;19904;-22
2023/08/14 14:58:51;;;;;;;;;;;;;;;;;;5094800;28;20389;-21
2023/08/14 15:01:17;;;;;;;;;;;;;;;;;;5094266;28;19904;-22
2023/08/14 15:03:43;;;;;;;;;;;;;;;;;;5094092;28;19924;-22
2023/08/14 15:06:09;;;;;;;;;;;;;;;;;;5094561;28;19908;-20
2023/08/14 15:08:35;;;;;;;;;;;;;;;;;;5094606;28;19912;-20
2023/08/14 15:11:01;;;;;;;;;;;;;;;;;;5094109;28;19953;-21
2023/08/14 15:13:27;;;;;;;;;;;;;;;;;;5075772;28;19908;-28
2023/08/14 15:15:53;;;;;;;;;;;;;;;;;;5075817;28;19916;-21
2023/08/14 15:18:19;;;;;;;;;;;;;;;;;;5093895;28;19908;-23
2023/08/14 15:20:45;;;;;;;;;;;;;;;;;;5075871;28;19935;-22
2023/08/14 15:23:11;;;;;;;;;;;;;;;;;;5093515;28;19912;-21
2023/08/14 15:25:37;;;;;;;;;;;;;;;;;;5075739;28;19919;-22
2023/08/14 15:28:02;;;;;;;;;;;;;;;;;;5075707;28;19959;-22
2023/08/14 15:30:28;;;;;;;;;;;;;;;;;;5075911;28;19920;-23
2023/08/14 15:32:55;;;;;;;;;;;;;;;;;;5093725;28;19908;-21
2023/08/14 15:35:21;;;;;;;;;;;;;;;;;;5093561;28;19930;-21
2023/08/14 15:37:47;;;;;;;;;;;;;;;;;;5093730;28;20015;-20
2023/08/14 15:40:13;;;;;;;;;;;;;;;;;;5093859;28;19955;-21
2023/08/14 15:42:38;;;;;;;;;;;;;;;;;;5075799;28;19912;-22
2023/08/14 15:45:04;;;;;;;;;;;;;;;;;;5094022;28;20315;-22
2023/08/14 15:47:30;;;;;;;;;;;;;;;;;;5079701;28;20232;-20
2023/08/14 15:49:56;;;;;;;;;;;;;;;;;;5097612;28;19908;-21
2023/08/14 15:52:28;;;;;;;;;;;;;;;;;;5079535;28;19912;-21
2023/08/14 15:54:54;;;;;;;;;;;;;;;;;;5079930;28;19909;-21
2023/08/14 15:57:20;;;;;;;;;;;;;;;;;;5097809;28;19919;-22
2023/08/14 15:59:46;;;;;;;;;;;;;;;;;;5097837;28;19908;-21
2023/08/14 16:02:12;;;;;;;;;;;;;;;;;;5097439;28;20084;-22
2023/08/14 16:04:38;;;;;;;;;;;;;;;;;;5097150;28;19998;-22
2023/08/14 16:07:04;;;;;;;;;;;;;;;;;;5097504;28;19911;-22
2023/08/14 16:09:30;;;;;;;;;;;;;;;;;;5097352;28;19940;-22
2023/08/14 16:11:59;;;;;;;;;;;;;;;;;;5079464;28;19908;-23
2023/08/14 16:14:25;;;;;;;;;;;;;;;;;;5097682;28;19920;-20
2023/08/14 16:16:51;;;;;;;;;;;;;;;;;;5097747;28;20294;-23
2023/08/14 16:19:17;;;;;;;;;;;;;;;;;;5079623;28;19954;-21
2023/08/14 16:21:42;;;;;;;;;;;;;;;;;;5097306;28;19976;-22
2023/08/14 16:24:08;;;;;;;;;;;;;;;;;;5079472;28;19908;-22
2023/08/14 16:26:34;;;;;;;;;;;;;;;;;;5097322;28;19947;-21
2023/08/14 16:29:00;;;;;;;;;;;;;;;;;;5097158;28;19915;-22
2023/08/14 16:31:26;;;;;;;;;;;;;;;;;;5097029;28;19947;-23
2023/08/14 16:33:52;;;;;;;;;;;;;;;;;;5096894;28;19912;-20
2023/08/14 16:36:18;;;;;;;;;;;;;;;;;;5097016;28;19904;-21
2023/08/14 16:38:44;;;;;;;;;;;;;;;;;;5096805;28;19908;-22